sensor_id;sensor_type;location;lat;lon;timestamp;pressure;altitude;pressure_sealevel;temperature;humidity
35892;BME280;21993;42.672;23.296;2022-11-15T00:00:03;95307.91;;;7.92;67.04
35892;BME280;21993;42.672;23.296;2022-11-15T00:02:28;95300.13;;;7.90;67.40
35892;BME280;21993;42.672;23.296;2022-11-15T00:04:54;95311.97;;;7.83;67.41
35892;BME280;21993;42.672;23.296;2022-11-15T00:07:19;95305.78;;;7.84;66.73
35892;BME280;21993;42.672;23.296;2022-11-15T00:09:45;95305.16;;;7.80;67.64
35892;BME280;21993;42.672;23.296;2022-11-15T00:12:10;95300.25;;;7.76;67.21
35892;BME280;21993;42.672;23.296;2022-11-15T00:14:35;95304.31;;;7.80;68.23
35892;BME280;21993;42.672;23.296;2022-11-15T00:17:01;95305.91;;;7.82;68.27
35892;BME280;21993;42.672;23.296;2022-11-15T00:19:26;95301.59;;;7.81;67.50
35892;BME280;21993;42.672;23.296;2022-11-15T00:21:51;95300.75;;;7.81;68.04
35892;BME280;21993;42.672;23.296;2022-11-15T00:24:17;95288.84;;;7.77;67.46
35892;BME280;21993;42.672;23.296;2022-11-15T00:26:42;95291.69;;;7.74;68.32
35892;BME280;21993;42.672;23.296;2022-11-15T00:29:08;95288.44;;;7.70;68.55
35892;BME280;21993;42.672;23.296;2022-11-15T00:31:33;95293.66;;;7.70;68.31
35892;BME280;21993;42.672;23.296;2022-11-15T00:33:59;95286.66;;;7.71;66.97
35892;BME280;21993;42.672;23.296;2022-11-15T00:36:24;95289.38;;;7.69;66.46
35892;BME280;21993;42.672;23.296;2022-11-15T00:38:49;95281.09;;;7.62;67.41
35892;BME280;21993;42.672;23.296;2022-11-15T00:41:15;95286.16;;;7.66;66.21
35892;BME280;21993;42.672;23.296;2022-11-15T00:43:40;95283.94;;;7.59;66.27
35892;BME280;21993;42.672;23.296;2022-11-15T00:46:08;95291.13;;;7.56;66.56
35892;BME280;21993;42.672;23.296;2022-11-15T00:48:34;95287.16;;;7.50;67.55
35892;BME280;21993;42.672;23.296;2022-11-15T00:51:00;95286.53;;;7.47;66.82
35892;BME280;21993;42.672;23.296;2022-11-15T00:53:26;95288.63;;;7.42;66.82
35892;BME280;21993;42.672;23.296;2022-11-15T00:55:51;95279.00;;;7.42;66.92
35892;BME280;21993;42.672;23.296;2022-11-15T00:58:17;95274.00;;;7.52;66.96
35892;BME280;21993;42.672;23.296;2022-11-15T01:00:42;95276.91;;;7.47;67.62
35892;BME280;21993;42.672;23.296;2022-11-15T01:03:07;95275.25;;;7.46;67.25
35892;BME280;21993;42.672;23.296;2022-11-15T01:05:33;95279.00;;;7.42;66.82
35892;BME280;21993;42.672;23.296;2022-11-15T01:07:58;95284.41;;;7.39;67.29
35892;BME280;21993;42.672;23.296;2022-11-15T01:10:23;95276.50;;;7.41;67.69
35892;BME280;21993;42.672;23.296;2022-11-15T01:12:51;95276.91;;;7.34;68.38
35892;BME280;21993;42.672;23.296;2022-11-15T01:15:16;95273.13;;;7.39;67.15
35892;BME280;21993;42.672;23.296;2022-11-15T01:17:42;95273.88;;;7.28;67.84
35892;BME280;21993;42.672;23.296;2022-11-15T01:20:08;95271.91;;;7.31;67.19
35892;BME280;21993;42.672;23.296;2022-11-15T01:22:33;95277.00;;;7.33;68.05
35892;BME280;21993;42.672;23.296;2022-11-15T01:24:59;95271.69;;;7.34;67.35
35892;BME280;21993;42.672;23.296;2022-11-15T01:27:24;95264.25;;;7.28;67.44
35892;BME280;21993;42.672;23.296;2022-11-15T01:29:49;95265.31;;;7.26;67.90
35892;BME280;21993;42.672;23.296;2022-11-15T01:32:15;95270.13;;;7.32;67.86
35892;BME280;21993;42.672;23.296;2022-11-15T01:34:41;95268.03;;;7.24;68.03
35892;BME280;21993;42.672;23.296;2022-11-15T01:37:06;95264.25;;;7.28;67.79
35892;BME280;21993;42.672;23.296;2022-11-15T01:39:32;95260.19;;;7.24;68.66
35892;BME280;21993;42.672;23.296;2022-11-15T01:41:57;95268.03;;;7.24;69.49
35892;BME280;21993;42.672;23.296;2022-11-15T01:46:58;95262.34;;;7.18;69.69
35892;BME280;21993;42.672;23.296;2022-11-15T01:49:26;95259.53;;;7.21;68.65
35892;BME280;21993;42.672;23.296;2022-11-15T01:51:54;95258.59;;;7.22;68.63
35892;BME280;21993;42.672;23.296;2022-11-15T01:54:21;95255.59;;;7.28;68.75
35892;BME280;21993;42.672;23.296;2022-11-15T01:57:01;95260.19;;;7.24;67.39
35892;BME280;21993;42.672;23.296;2022-11-15T01:59:28;95258.91;;;7.17;67.38
35892;BME280;21993;42.672;23.296;2022-11-15T02:01:53;95262.03;;;7.22;67.76
35892;BME280;21993;42.672;23.296;2022-11-15T02:04:28;95258.81;;;7.19;67.62
35892;BME280;21993;42.672;23.296;2022-11-15T02:06:54;95260.16;;;7.12;67.59
35892;BME280;21993;42.672;23.296;2022-11-15T02:09:19;95255.97;;;7.09;67.48
35892;BME280;21993;42.672;23.296;2022-11-15T02:11:46;95251.25;;;7.14;67.25
35892;BME280;21993;42.672;23.296;2022-11-15T02:14:13;95255.97;;;7.09;66.74
35892;BME280;21993;42.672;23.296;2022-11-15T02:22:58;95255.75;;;6.99;67.45
35892;BME280;21993;42.672;23.296;2022-11-15T02:28:35;95251.97;;;6.91;67.77
35892;BME280;21993;42.672;23.296;2022-11-15T02:34:02;95258.47;;;6.98;67.32
35892;BME280;21993;42.672;23.296;2022-11-15T02:39:40;95253.13;;;6.99;68.05
35892;BME280;21993;42.672;23.296;2022-11-15T02:42:36;95250.09;;;6.93;67.41
35892;BME280;21993;42.672;23.296;2022-11-15T02:45:28;95252.91;;;6.90;68.16
35892;BME280;21993;42.672;23.296;2022-11-15T02:47:56;95251.41;;;6.86;68.59
35892;BME280;21993;42.672;23.296;2022-11-15T02:50:26;95240.88;;;6.87;69.17
35892;BME280;21993;42.672;23.296;2022-11-15T02:52:53;95248.69;;;6.87;69.39
35892;BME280;21993;42.672;23.296;2022-11-15T02:55:36;95246.50;;;6.81;69.22
35892;BME280;21993;42.672;23.296;2022-11-15T03:01:22;95257.47;;;6.86;69.70
35892;BME280;21993;42.672;23.296;2022-11-15T03:09:01;95260.72;;;6.90;69.08
35892;BME280;21993;42.672;23.296;2022-11-15T03:11:29;95256.75;;;6.97;68.55
35892;BME280;21993;42.672;23.296;2022-11-15T03:16:52;95244.53;;;6.97;71.01
35892;BME280;21993;42.672;23.296;2022-11-15T03:19:31;95238.59;;;6.95;72.09
35892;BME280;21993;42.672;23.296;2022-11-15T03:22:00;95244.16;;;7.03;73.08
35892;BME280;21993;42.672;23.296;2022-11-15T03:24:30;95244.66;;;6.96;73.53
35892;BME280;21993;42.672;23.296;2022-11-15T03:26:59;95241.22;;;6.95;72.40
35892;BME280;21993;42.672;23.296;2022-11-15T03:29:33;95235.06;;;6.96;73.03
35892;BME280;21993;42.672;23.296;2022-11-15T03:32:16;95241.03;;;6.98;73.81
35892;BME280;21993;42.672;23.296;2022-11-15T03:37:20;95236.75;;;7.10;71.52
35892;BME280;21993;42.672;23.296;2022-11-15T03:39:47;95228.09;;;7.10;71.64
35892;BME280;21993;42.672;23.296;2022-11-15T03:42:28;95228.19;;;7.08;71.43
35892;BME280;21993;42.672;23.296;2022-11-15T03:45:02;95221.09;;;7.10;70.76
35892;BME280;21993;42.672;23.296;2022-11-15T03:47:39;95227.25;;;7.09;71.83
35892;BME280;21993;42.672;23.296;2022-11-15T03:50:11;95219.31;;;7.11;71.37
35892;BME280;21993;42.672;23.296;2022-11-15T03:52:39;95216.94;;;7.08;70.79
35892;BME280;21993;42.672;23.296;2022-11-15T03:55:09;95215.25;;;7.07;71.49
35892;BME280;21993;42.672;23.296;2022-11-15T03:57:35;95214.94;;;7.11;71.42
35892;BME280;21993;42.672;23.296;2022-11-15T04:00:00;95209.50;;;7.14;71.70
35892;BME280;21993;42.672;23.296;2022-11-15T04:02:26;95203.16;;;7.18;71.67
35892;BME280;21993;42.672;23.296;2022-11-15T04:04:51;95212.66;;;7.19;73.16
35892;BME280;21993;42.672;23.296;2022-11-15T04:07:16;95209.81;;;7.22;74.06
35892;BME280;21993;42.672;23.296;2022-11-15T04:09:42;95216.94;;;7.20;74.91
35892;BME280;21993;42.672;23.296;2022-11-15T04:12:26;95208.69;;;7.26;74.88
35892;BME280;21993;42.672;23.296;2022-11-15T04:14:59;95206.47;;;7.20;75.24
35892;BME280;21993;42.672;23.296;2022-11-15T04:17:47;95207.53;;;7.18;75.62
35892;BME280;21993;42.672;23.296;2022-11-15T04:20:20;95199.91;;;7.15;75.34
35892;BME280;21993;42.672;23.296;2022-11-15T04:23:20;95204.91;;;7.05;75.57
35892;BME280;21993;42.672;23.296;2022-11-15T04:26:11;95200.31;;;7.09;75.81
35892;BME280;21993;42.672;23.296;2022-11-15T04:28:38;95210.75;;;7.09;75.52
35892;BME280;21993;42.672;23.296;2022-11-15T04:31:23;95197.00;;;7.07;75.85
35892;BME280;21993;42.672;23.296;2022-11-15T04:33:49;95204.50;;;7.11;75.61
35892;BME280;21993;42.672;23.296;2022-11-15T04:36:14;95204.06;;;7.04;75.98
35892;BME280;21993;42.672;23.296;2022-11-15T04:38:58;95204.50;;;6.98;75.64
35892;BME280;21993;42.672;23.296;2022-11-15T04:41:24;95205.50;;;6.96;75.90
35892;BME280;21993;42.672;23.296;2022-11-15T04:43:49;95209.50;;;7.01;75.94
35892;BME280;21993;42.672;23.296;2022-11-15T04:46:14;95205.53;;;7.09;76.24
35892;BME280;21993;42.672;23.296;2022-11-15T04:48:40;95197.50;;;7.12;76.43
35892;BME280;21993;42.672;23.296;2022-11-15T04:51:05;95208.59;;;7.15;75.38
35892;BME280;21993;42.672;23.296;2022-11-15T04:53:31;95214.00;;;6.99;76.56
35892;BME280;21993;42.672;23.296;2022-11-15T04:55:56;95209.59;;;7.00;77.24
35892;BME280;21993;42.672;23.296;2022-11-15T04:58:21;95209.28;;;7.04;76.29
35892;BME280;21993;42.672;23.296;2022-11-15T05:00:47;95214.22;;;7.09;76.66
35892;BME280;21993;42.672;23.296;2022-11-15T05:03:12;95212.31;;;7.11;76.44
35892;BME280;21993;42.672;23.296;2022-11-15T05:05:57;95203.56;;;7.12;76.55
35892;BME280;21993;42.672;23.296;2022-11-15T05:08:23;95210.97;;;7.18;76.14
35892;BME280;21993;42.672;23.296;2022-11-15T05:10:48;95204.81;;;7.19;75.68
35892;BME280;21993;42.672;23.296;2022-11-15T05:13:13;95216.00;;;7.09;76.07
35892;BME280;21993;42.672;23.296;2022-11-15T05:15:39;95211.06;;;7.04;76.39
35892;BME280;21993;42.672;23.296;2022-11-15T05:18:04;95216.28;;;7.04;76.29
35892;BME280;21993;42.672;23.296;2022-11-15T05:20:29;95208.78;;;6.99;77.10
35892;BME280;21993;42.672;23.296;2022-11-15T05:22:55;95206.66;;;7.04;76.59
35892;BME280;21993;42.672;23.296;2022-11-15T05:25:21;95209.72;;;6.98;77.11
35892;BME280;21993;42.672;23.296;2022-11-15T05:27:47;95208.34;;;6.93;77.18
35892;BME280;21993;42.672;23.296;2022-11-15T05:30:12;95208.34;;;6.93;76.76
35892;BME280;21993;42.672;23.296;2022-11-15T05:32:38;95197.25;;;6.89;77.62
35892;BME280;21993;42.672;23.296;2022-11-15T05:35:07;95208.63;;;6.88;77.19
35892;BME280;21993;42.672;23.296;2022-11-15T05:37:34;95204.78;;;6.81;77.65
35892;BME280;21993;42.672;23.296;2022-11-15T05:40:00;95205.88;;;6.77;77.96
35892;BME280;21993;42.672;23.296;2022-11-15T05:42:26;95204.13;;;6.77;77.55
35892;BME280;21993;42.672;23.296;2022-11-15T05:44:53;95207.28;;;6.83;77.92
35892;BME280;21993;42.672;23.296;2022-11-15T05:47:21;95209.88;;;6.83;77.80
35892;BME280;21993;42.672;23.296;2022-11-15T05:49:50;95209.66;;;6.86;78.36
35892;BME280;21993;42.672;23.296;2022-11-15T05:52:20;95206.13;;;6.87;78.05
35892;BME280;21993;42.672;23.296;2022-11-15T05:54:46;95213.59;;;6.78;78.26
35892;BME280;21993;42.672;23.296;2022-11-15T05:57:12;95214.34;;;6.81;78.39
35892;BME280;21993;42.672;23.296;2022-11-15T05:59:38;95212.78;;;6.78;78.45
35892;BME280;21993;42.672;23.296;2022-11-15T06:02:05;95217.25;;;6.76;77.70
35892;BME280;21993;42.672;23.296;2022-11-15T06:04:31;95212.88;;;6.76;77.88
35892;BME280;21993;42.672;23.296;2022-11-15T06:06:58;95222.38;;;6.77;77.62
35892;BME280;21993;42.672;23.296;2022-11-15T06:09:23;95217.88;;;6.80;77.67
35892;BME280;21993;42.672;23.296;2022-11-15T06:11:48;95217.16;;;6.77;78.63
35892;BME280;21993;42.672;23.296;2022-11-15T06:14:14;95219.59;;;6.93;78.28
35892;BME280;21993;42.672;23.296;2022-11-15T06:16:39;95229.22;;;6.93;77.41
35892;BME280;21993;42.672;23.296;2022-11-15T06:19:06;95221.81;;;6.99;76.72
35892;BME280;21993;42.672;23.296;2022-11-15T06:21:32;95231.94;;;7.04;77.07
35892;BME280;21993;42.672;23.296;2022-11-15T06:23:57;95224.84;;;7.06;77.19
35892;BME280;21993;42.672;23.296;2022-11-15T06:26:23;95224.66;;;7.09;77.56
35892;BME280;21993;42.672;23.296;2022-11-15T06:28:48;95220.47;;;7.07;76.62
35892;BME280;21993;42.672;23.296;2022-11-15T06:31:13;95217.31;;;7.01;77.15
35892;BME280;21993;42.672;23.296;2022-11-15T06:33:39;95214.94;;;6.98;77.24
35892;BME280;21993;42.672;23.296;2022-11-15T06:36:07;95209.59;;;7.00;76.36
35892;BME280;21993;42.672;23.296;2022-11-15T06:38:33;95204.28;;;7.01;76.94
35892;BME280;21993;42.672;23.296;2022-11-15T06:41:03;95212.72;;;7.05;77.02
35892;BME280;21993;42.672;23.296;2022-11-15T06:43:29;95208.03;;;7.10;76.09
35892;BME280;21993;42.672;23.296;2022-11-15T06:45:54;95207.31;;;7.08;76.56
35892;BME280;21993;42.672;23.296;2022-11-15T06:48:20;95206.06;;;7.14;76.00
35892;BME280;21993;42.672;23.296;2022-11-15T06:50:56;95209.22;;;7.19;75.67
35892;BME280;21993;42.672;23.296;2022-11-15T06:53:22;95211.72;;;7.20;76.15
35892;BME280;21993;42.672;23.296;2022-11-15T06:55:47;95206.69;;;7.17;75.73
35892;BME280;21993;42.672;23.296;2022-11-15T06:58:13;95215.03;;;7.10;75.67
35892;BME280;21993;42.672;23.296;2022-11-15T07:00:39;95212.09;;;7.14;75.87
35892;BME280;21993;42.672;23.296;2022-11-15T07:03:05;95196.03;;;7.20;75.87
35892;BME280;21993;42.672;23.296;2022-11-15T07:05:30;95211.59;;;7.22;75.45
35892;BME280;21993;42.672;23.296;2022-11-15T07:07:57;95202.00;;;7.22;76.17
35892;BME280;21993;42.672;23.296;2022-11-15T07:10:23;95203.38;;;7.28;75.50
35892;BME280;21993;42.672;23.296;2022-11-15T07:12:54;95196.69;;;7.24;75.75
35892;BME280;21993;42.672;23.296;2022-11-15T07:15:23;95193.75;;;7.28;75.02
35892;BME280;21993;42.672;23.296;2022-11-15T07:17:50;95201.81;;;7.25;74.60
35892;BME280;21993;42.672;23.296;2022-11-15T07:20:16;95197.19;;;7.29;74.95
35892;BME280;21993;42.672;23.296;2022-11-15T07:22:42;95198.97;;;7.28;75.42
35892;BME280;21993;42.672;23.296;2022-11-15T07:25:08;95198.13;;;7.28;74.95
35892;BME280;21993;42.672;23.296;2022-11-15T07:27:34;95212.69;;;7.32;75.05
35892;BME280;21993;42.672;23.296;2022-11-15T07:30:01;95209.13;;;7.33;74.93
35892;BME280;21993;42.672;23.296;2022-11-15T07:32:27;95204.91;;;7.30;75.18
35892;BME280;21993;42.672;23.296;2022-11-15T07:34:52;95210.91;;;7.32;75.55
35892;BME280;21993;42.672;23.296;2022-11-15T07:37:18;95200.66;;;7.29;75.63
35892;BME280;21993;42.672;23.296;2022-11-15T07:39:43;95203.06;;;7.32;75.37
35892;BME280;21993;42.672;23.296;2022-11-15T07:42:09;95206.50;;;7.33;75.41
35892;BME280;21993;42.672;23.296;2022-11-15T07:44:53;95204.41;;;7.38;75.59
35892;BME280;21993;42.672;23.296;2022-11-15T07:47:18;95203.56;;;7.38;75.28
35892;BME280;21993;42.672;23.296;2022-11-15T07:49:44;95197.00;;;7.32;75.88
35892;BME280;21993;42.672;23.296;2022-11-15T07:52:11;95208.78;;;7.38;75.55
35892;BME280;21993;42.672;23.296;2022-11-15T07:54:36;95196.56;;;7.38;75.46
35892;BME280;21993;42.672;23.296;2022-11-15T07:57:02;95200.84;;;7.39;75.47
35892;BME280;21993;42.672;23.296;2022-11-15T07:59:27;95196.78;;;7.48;74.75
35892;BME280;21993;42.672;23.296;2022-11-15T08:01:53;95196.47;;;7.52;75.15
35892;BME280;21993;42.672;23.296;2022-11-15T08:04:18;95202.75;;;7.50;75.34
35892;BME280;21993;42.672;23.296;2022-11-15T08:06:43;95193.88;;;7.52;74.85
35892;BME280;21993;42.672;23.296;2022-11-15T08:09:09;95200.56;;;7.44;74.54
35892;BME280;21993;42.672;23.296;2022-11-15T08:11:34;95195.22;;;7.45;75.21
35892;BME280;21993;42.672;23.296;2022-11-15T08:14:00;95193.13;;;7.50;75.65
35892;BME280;21993;42.672;23.296;2022-11-15T08:16:25;95193.56;;;7.57;74.66
35892;BME280;21993;42.672;23.296;2022-11-15T08:18:50;95190.00;;;7.58;74.30
35892;BME280;21993;42.672;23.296;2022-11-15T08:21:19;95192.50;;;7.59;74.12
35892;BME280;21993;42.672;23.296;2022-11-15T08:23:45;95185.19;;;7.52;75.32
35892;BME280;21993;42.672;23.296;2022-11-15T08:26:10;95190.72;;;7.60;74.86
35892;BME280;21993;42.672;23.296;2022-11-15T08:28:36;95190.63;;;7.61;75.19
35892;BME280;21993;42.672;23.296;2022-11-15T08:31:02;95180.34;;;7.71;74.41
35892;BME280;21993;42.672;23.296;2022-11-15T08:33:28;95179.41;;;7.72;74.64
35892;BME280;21993;42.672;23.296;2022-11-15T08:35:59;95175.84;;;7.73;74.45
35892;BME280;21993;42.672;23.296;2022-11-15T08:38:25;95179.94;;;7.77;74.17
35892;BME280;21993;42.672;23.296;2022-11-15T08:40:52;95179.00;;;7.78;73.24
35892;BME280;21993;42.672;23.296;2022-11-15T08:43:19;95172.31;;;7.74;74.41
35892;BME280;21993;42.672;23.296;2022-11-15T08:45:44;95178.03;;;7.79;73.34
35892;BME280;21993;42.672;23.296;2022-11-15T08:48:10;95174.47;;;7.80;73.82
35892;BME280;21993;42.672;23.296;2022-11-15T08:50:35;95174.72;;;7.77;73.83
35892;BME280;21993;42.672;23.296;2022-11-15T08:53:05;95173.16;;;7.75;73.94
35892;BME280;21993;42.672;23.296;2022-11-15T08:55:31;95166.56;;;7.69;73.54
35892;BME280;21993;42.672;23.296;2022-11-15T08:57:57;95163.13;;;7.69;74.89
35892;BME280;21993;42.672;23.296;2022-11-15T09:00:23;95166.75;;;7.79;73.91
35892;BME280;21993;42.672;23.296;2022-11-15T09:02:48;95168.53;;;7.78;73.99
35892;BME280;21993;42.672;23.296;2022-11-15T09:05:14;95156.66;;;7.74;74.95
35892;BME280;21993;42.672;23.296;2022-11-15T09:07:40;95154.53;;;7.79;73.25
35892;BME280;21993;42.672;23.296;2022-11-15T09:10:06;95146.97;;;7.87;73.16
35892;BME280;21993;42.672;23.296;2022-11-15T09:12:31;95148.03;;;7.85;73.76
35892;BME280;21993;42.672;23.296;2022-11-15T09:14:57;95145.91;;;7.90;73.89
35892;BME280;21993;42.672;23.296;2022-11-15T09:17:23;95144.59;;;7.84;74.48
35892;BME280;21993;42.672;23.296;2022-11-15T09:19:48;95144.38;;;7.87;73.46
35892;BME280;21993;42.672;23.296;2022-11-15T09:22:14;95130.34;;;7.88;74.03
35892;BME280;21993;42.672;23.296;2022-11-15T09:24:39;95136.41;;;7.89;74.22
35892;BME280;21993;42.672;23.296;2022-11-15T09:27:04;95131.81;;;7.93;73.94
35892;BME280;21993;42.672;23.296;2022-11-15T09:29:30;95130.16;;;7.92;74.00
35892;BME280;21993;42.672;23.296;2022-11-15T09:31:55;95120.59;;;8.03;73.80
35892;BME280;21993;42.672;23.296;2022-11-15T09:34:21;95128.44;;;8.03;74.11
35892;BME280;21993;42.672;23.296;2022-11-15T09:36:46;95116.34;;;8.13;73.18
35892;BME280;21993;42.672;23.296;2022-11-15T09:39:12;95116.72;;;8.09;72.61
35892;BME280;21993;42.672;23.296;2022-11-15T09:46:58;95107.56;;;8.14;73.12
35892;BME280;21993;42.672;23.296;2022-11-15T09:49:29;95105.63;;;8.05;72.60
35892;BME280;21993;42.672;23.296;2022-11-15T09:51:55;95097.31;;;8.24;72.60
35892;BME280;21993;42.672;23.296;2022-11-15T09:54:34;95095.59;;;8.23;73.12
35892;BME280;21993;42.672;23.296;2022-11-15T09:57:09;95096.22;;;8.27;72.86
35892;BME280;21993;42.672;23.296;2022-11-15T10:02:19;95086.06;;;8.35;72.75
35892;BME280;21993;42.672;23.296;2022-11-15T10:04:49;95068.16;;;8.41;72.16
35892;BME280;21993;42.672;23.296;2022-11-15T10:07:32;95067.94;;;8.32;72.51
35892;BME280;21993;42.672;23.296;2022-11-15T10:10:11;95080.41;;;8.41;72.24
35892;BME280;21993;42.672;23.296;2022-11-15T10:12:42;95063.25;;;8.37;72.37
35892;BME280;21993;42.672;23.296;2022-11-15T10:15:16;95067.41;;;8.39;73.64
35892;BME280;21993;42.672;23.296;2022-11-15T10:20:50;95067.47;;;8.51;73.04
35892;BME280;21993;42.672;23.296;2022-11-15T10:23:21;95061.66;;;8.58;72.93
35892;BME280;21993;42.672;23.296;2022-11-15T10:25:47;95060.59;;;8.72;71.72
35892;BME280;21993;42.672;23.296;2022-11-15T10:28:21;95047.66;;;8.82;71.75
35892;BME280;21993;42.672;23.296;2022-11-15T10:30:50;95041.50;;;8.94;71.17
35892;BME280;21993;42.672;23.296;2022-11-15T10:33:37;95041.38;;;8.95;71.71
35892;BME280;21993;42.672;23.296;2022-11-15T10:44:03;95023.91;;;9.18;71.29
35892;BME280;21993;42.672;23.296;2022-11-15T10:46:38;95004.22;;;9.46;69.87
35892;BME280;21993;42.672;23.296;2022-11-15T10:49:21;95008.00;;;9.65;69.96
35892;BME280;21993;42.672;23.296;2022-11-15T10:51:48;94999.31;;;9.96;68.50
35892;BME280;21993;42.672;23.296;2022-11-15T10:54:34;94996.34;;;10.22;67.61
35892;BME280;21993;42.672;23.296;2022-11-15T10:57:18;94998.31;;;10.40;67.17
35892;BME280;21993;42.672;23.296;2022-11-15T10:59:49;94986.81;;;10.53;66.22
35892;BME280;21993;42.672;23.296;2022-11-15T11:02:39;94975.97;;;10.67;66.02
35892;BME280;21993;42.672;23.296;2022-11-15T11:08:05;94966.84;;;10.92;65.26
35892;BME280;21993;42.672;23.296;2022-11-15T11:10:57;94966.16;;;11.30;64.16
35892;BME280;21993;42.672;23.296;2022-11-15T11:13:28;94965.13;;;11.52;63.10
35892;BME280;21993;42.672;23.296;2022-11-15T11:18:56;94962.91;;;11.67;62.63
35892;BME280;21993;42.672;23.296;2022-11-15T11:21:59;94950.00;;;11.94;61.70
35892;BME280;21993;42.672;23.296;2022-11-15T11:30:22;94936.63;;;12.44;60.28
35892;BME280;21993;42.672;23.296;2022-11-15T11:33:01;94923.31;;;12.55;59.47
35892;BME280;21993;42.672;23.296;2022-11-15T11:49:08;94902.31;;;13.10;57.46
35892;BME280;21993;42.672;23.296;2022-11-15T11:54:13;94879.66;;;13.27;57.01
35892;BME280;21993;42.672;23.296;2022-11-15T11:56:43;94887.81;;;13.34;56.70
35892;BME280;21993;42.672;23.296;2022-11-15T11:59:28;94878.00;;;13.44;56.47
35892;BME280;21993;42.672;23.296;2022-11-15T12:02:01;94870.72;;;13.56;55.91
35892;BME280;21993;42.672;23.296;2022-11-15T12:04:37;94865.00;;;13.60;56.22
35892;BME280;21993;42.672;23.296;2022-11-15T12:07:20;94856.41;;;13.58;56.03
35892;BME280;21993;42.672;23.296;2022-11-15T12:09:55;94858.63;;;13.63;55.90
35892;BME280;21993;42.672;23.296;2022-11-15T12:13:02;94862.34;;;13.60;55.66
35892;BME280;21993;42.672;23.296;2022-11-15T12:15:59;94844.63;;;13.70;55.61
35892;BME280;21993;42.672;23.296;2022-11-15T12:18:26;94848.81;;;13.73;55.40
35892;BME280;21993;42.672;23.296;2022-11-15T12:21:05;94834.94;;;13.71;55.35
35892;BME280;21993;42.672;23.296;2022-11-15T12:23:43;94835.53;;;13.65;55.72
35892;BME280;21993;42.672;23.296;2022-11-15T12:26:17;94841.19;;;13.70;55.75
35892;BME280;21993;42.672;23.296;2022-11-15T12:28:52;94829.66;;;13.71;55.37
35892;BME280;21993;42.672;23.296;2022-11-15T12:36:46;94829.34;;;13.92;55.34
35892;BME280;21993;42.672;23.296;2022-11-15T12:39:13;94817.03;;;14.00;55.24
35892;BME280;21993;42.672;23.296;2022-11-15T12:41:40;94818.53;;;14.03;54.82
35892;BME280;21993;42.672;23.296;2022-11-15T12:44:11;94808.34;;;14.08;54.81
35892;BME280;21993;42.672;23.296;2022-11-15T12:59:55;94810.22;;;14.16;54.61
35892;BME280;21993;42.672;23.296;2022-11-15T13:02:40;94803.00;;;14.00;54.64
35892;BME280;21993;42.672;23.296;2022-11-15T13:17:52;94776.56;;;14.18;54.42
35892;BME280;21993;42.672;23.296;2022-11-15T13:25:24;94778.03;;;13.94;55.04
35892;BME280;21993;42.672;23.296;2022-11-15T13:27:53;94774.22;;;13.89;55.22
35892;BME280;21993;42.672;23.296;2022-11-15T13:30:25;94768.91;;;13.80;55.60
35892;BME280;21993;42.672;23.296;2022-11-15T13:32:51;94773.41;;;13.70;56.09
35892;BME280;21993;42.672;23.296;2022-11-15T13:35:22;94776.53;;;13.66;55.84
35892;BME280;21993;42.672;23.296;2022-11-15T13:37:49;94777.59;;;13.55;56.27
35892;BME280;21993;42.672;23.296;2022-11-15T13:40:28;94766.66;;;13.50;56.63
35892;BME280;21993;42.672;23.296;2022-11-15T13:42:56;94769.78;;;13.45;56.50
35892;BME280;21993;42.672;23.296;2022-11-15T13:48:46;94771.56;;;13.27;57.44
35892;BME280;21993;42.672;23.296;2022-11-15T13:51:22;94770.63;;;13.18;57.46
35892;BME280;21993;42.672;23.296;2022-11-15T13:56:45;94766.25;;;13.09;58.06
35892;BME280;21993;42.672;23.296;2022-11-15T14:01:45;94771.13;;;12.86;59.07
35892;BME280;21993;42.672;23.296;2022-11-15T14:07:32;94751.38;;;12.73;59.09
35892;BME280;21993;42.672;23.296;2022-11-15T14:12:58;94756.41;;;12.66;59.05
35892;BME280;21993;42.672;23.296;2022-11-15T14:15:32;94757.53;;;12.63;59.40
35892;BME280;21993;42.672;23.296;2022-11-15T14:17:58;94756.22;;;12.50;60.03
35892;BME280;21993;42.672;23.296;2022-11-15T14:20:38;94754.31;;;12.42;60.26
35892;BME280;21993;42.672;23.296;2022-11-15T14:23:26;94757.75;;;12.43;60.42
35892;BME280;21993;42.672;23.296;2022-11-15T14:25:54;94758.72;;;12.42;60.48
35892;BME280;21993;42.672;23.296;2022-11-15T14:30:45;94758.59;;;12.43;60.50
35892;BME280;21993;42.672;23.296;2022-11-15T14:33:22;94755.13;;;12.43;60.48
35892;BME280;21993;42.672;23.296;2022-11-15T14:35:50;94757.53;;;12.36;60.98
35892;BME280;21993;42.672;23.296;2022-11-15T14:38:15;94755.31;;;12.31;60.84
35892;BME280;21993;42.672;23.296;2022-11-15T14:40:42;94766.41;;;12.25;61.28
35892;BME280;21993;42.672;23.296;2022-11-15T14:43:09;94764.09;;;12.22;60.91
35892;BME280;21993;42.672;23.296;2022-11-15T14:45:36;94766.00;;;12.30;60.70
35892;BME280;21993;42.672;23.296;2022-11-15T14:48:02;94761.59;;;12.21;60.94
35892;BME280;21993;42.672;23.296;2022-11-15T14:50:27;94764.38;;;12.19;60.87
35892;BME280;21993;42.672;23.296;2022-11-15T14:52:53;94763.56;;;12.09;61.78
35892;BME280;21993;42.672;23.296;2022-11-15T14:55:30;94755.09;;;12.15;61.20
35892;BME280;21993;42.672;23.296;2022-11-15T14:58:00;94751.69;;;12.05;61.73
35892;BME280;21993;42.672;23.296;2022-11-15T15:00:29;94761.78;;;12.00;62.16
35892;BME280;21993;42.672;23.296;2022-11-15T15:02:54;94759.19;;;11.90;62.34
35892;BME280;21993;42.672;23.296;2022-11-15T15:05:39;94756.88;;;11.87;62.37
35892;BME280;21993;42.672;23.296;2022-11-15T15:08:05;94757.94;;;11.75;62.53
35892;BME280;21993;42.672;23.296;2022-11-15T15:10:33;94768.09;;;11.70;62.93
35892;BME280;21993;42.672;23.296;2022-11-15T15:12:59;94756.88;;;11.58;62.97
35892;BME280;21993;42.672;23.296;2022-11-15T15:15:32;94753.41;;;11.57;63.56
35892;BME280;21993;42.672;23.296;2022-11-15T15:17:58;94757.31;;;11.53;63.42
35892;BME280;21993;42.672;23.296;2022-11-15T15:20:23;94752.31;;;11.50;63.54